Time;durP1;ratioP1;P1;durP2;ratioP2;P2;SDS_P1;SDS_P2;PMS_P1;PMS_P2;Temp;Humidity;BMP_temperature;BMP_pressure;BME280_temperature;BME280_humidity;BME280_pressure;Samples;Min_cycle;Max_cycle;Signal;HPM_P1;HPM_P2
2022/09/22 00:00:57;;;;;;;5.27;4.33;;;11.30;99.90;;;;;;5069895;28;20211;-85
2022/09/22 00:03:26;;;;;;;4.97;4.50;;;11.30;99.90;;;;;;5075031;28;20200;-84
2022/09/22 00:06:01;;;;;;;5.53;4.30;;;11.30;99.90;;;;;;5068466;28;20208;-82
2022/09/22 00:08:29;;;;;;;5.23;4.67;;;11.30;99.90;;;;;;5068921;28;20202;-84
2022/09/22 00:11:01;;;;;;;5.77;4.27;;;11.20;99.90;;;;;;5069019;28;20208;-84
2022/09/22 00:13:27;;;;;;;4.70;4.17;;;11.20;99.90;;;;;;5077428;28;20210;-85
2022/09/22 00:15:54;;;;;;;6.00;4.87;;;11.20;99.90;;;;;;5089598;28;20203;-85
2022/09/22 00:18:21;;;;;;;4.90;4.40;;;11.10;99.90;;;;;;5088846;28;20214;-82
2022/09/22 00:20:49;;;;;;;5.53;4.90;;;11.10;99.90;;;;;;5088442;28;20241;-83
2022/09/22 00:23:16;;;;;;;5.00;4.50;;;11.10;99.90;;;;;;5089078;28;20211;-84
2022/09/22 00:25:42;;;;;;;7.57;4.33;;;11.00;99.90;;;;;;5088612;28;20202;-84
2022/09/22 00:28:11;;;;;;;6.50;4.70;;;11.00;99.90;;;;;;5082705;28;20669;-82
2022/09/22 00:30:41;;;;;;;5.20;4.50;;;11.00;99.90;;;;;;5068962;28;20231;-86
2022/09/22 00:33:08;;;;;;;4.60;4.20;;;10.90;99.90;;;;;;5085521;28;20857;-83
2022/09/22 00:35:36;;;;;;;4.97;4.57;;;10.90;99.90;;;;;;5088989;28;20203;-84
2022/09/22 00:38:06;;;;;;;5.03;4.53;;;10.90;99.90;;;;;;5090066;28;20198;-84
2022/09/22 00:40:34;;;;;;;4.80;4.37;;;10.80;99.90;;;;;;5089401;28;20209;-84
2022/09/22 00:43:18;;;;;;;4.67;4.13;;;10.70;99.90;;;;;;5089473;28;20211;-84
2022/09/22 00:45:47;;;;;;;4.40;4.00;;;10.70;99.90;;;;;;5088365;28;20192;-84
2022/09/22 00:48:14;;;;;;;6.77;4.50;;;10.70;99.90;;;;;;5088572;28;20206;-84
2022/09/22 00:50:41;;;;;;;5.33;4.17;;;10.70;99.90;;;;;;5088311;28;20764;-83
2022/09/22 00:53:12;;;;;;;4.80;4.27;;;10.70;99.90;;;;;;5091698;28;20242;-83
2022/09/22 00:55:43;;;;;;;4.23;3.90;;;10.70;99.90;;;;;;5092126;28;20194;-83
2022/09/22 00:58:14;;;;;;;4.83;4.23;;;10.70;99.90;;;;;;5072096;28;20191;-83
2022/09/22 01:00:41;;;;;;;4.90;3.90;;;10.60;99.90;;;;;;5071968;28;20191;-83
2022/09/22 01:03:15;;;;;;;4.47;3.73;;;10.60;99.90;;;;;;5076172;28;20203;-83
2022/09/22 01:05:47;;;;;;;4.30;3.80;;;10.60;99.90;;;;;;5073066;28;20230;-86
2022/09/22 01:08:16;;;;;;;3.80;3.50;;;10.50;99.90;;;;;;5073070;28;20199;-83
2022/09/22 01:10:43;;;;;;;6.57;4.27;;;10.50;99.90;;;;;;5071688;28;20218;-83
2022/09/22 01:13:20;;;;;;;4.13;3.83;;;10.40;99.90;;;;;;5071757;28;20231;-83
2022/09/22 01:15:58;;;;;;;5.10;3.93;;;10.40;99.90;;;;;;5090393;28;20209;-83
2022/09/22 01:18:32;;;;;;;5.90;4.10;;;10.40;99.90;;;;;;5092058;28;20211;-83
2022/09/22 01:21:26;;;;;;;5.10;3.37;;;10.30;99.90;;;;;;5084266;28;20222;-85
2022/09/22 01:24:25;;;;;;;4.10;3.77;;;10.30;99.90;;;;;;5074516;28;20192;-85
2022/09/22 01:27:29;;;;;;;4.30;3.90;;;10.30;99.90;;;;;;5092305;28;20214;-84
2022/09/22 01:30:19;;;;;;;4.10;3.50;;;10.30;99.90;;;;;;5083504;28;20322;-83
2022/09/22 01:33:00;;;;;;;3.83;3.50;;;10.30;99.90;;;;;;5091968;28;20266;-84
2022/09/22 01:35:32;;;;;;;3.60;3.30;;;10.20;99.90;;;;;;5091734;28;20222;-84
2022/09/22 01:38:06;;;;;;;3.50;3.20;;;10.20;99.90;;;;;;5091605;28;20199;-82
2022/09/22 01:40:41;;;;;;;3.77;3.47;;;10.20;99.90;;;;;;5089235;28;20202;-83
2022/09/22 01:43:16;;;;;;;4.07;3.33;;;10.10;99.90;;;;;;5090907;28;20282;-81
2022/09/22 01:45:47;;;;;;;5.57;3.20;;;10.20;99.90;;;;;;5091188;28;20240;-84
2022/09/22 01:48:19;;;;;;;3.47;3.13;;;10.20;99.90;;;;;;5091773;28;20207;-82
2022/09/22 01:50:52;;;;;;;3.50;3.20;;;10.10;99.90;;;;;;5090989;28;20568;-83
2022/09/22 01:53:24;;;;;;;3.43;3.13;;;10.20;99.90;;;;;;5090609;28;20215;-84
2022/09/22 01:55:54;;;;;;;3.63;3.07;;;10.20;99.90;;;;;;5074826;28;20218;-85
2022/09/22 01:58:26;;;;;;;3.70;3.40;;;10.20;99.90;;;;;;5092179;28;20198;-85
2022/09/22 02:00:59;;;;;;;3.40;3.07;;;10.20;99.90;;;;;;5092624;28;20191;-85
2022/09/22 02:03:33;;;;;;;3.53;3.03;;;10.10;99.90;;;;;;5091323;28;20218;-84
2022/09/22 02:06:05;;;;;;;3.30;3.10;;;10.10;99.90;;;;;;5090711;28;20230;-83
2022/09/22 02:08:34;;;;;;;2.90;2.70;;;10.00;99.90;;;;;;5090964;28;20199;-82
2022/09/22 02:11:08;;;;;;;4.10;3.10;;;10.00;99.90;;;;;;5091409;28;20290;-84
2022/09/22 02:13:35;;;;;;;3.20;3.00;;;10.10;99.90;;;;;;5090929;28;20264;-84
2022/09/22 02:16:05;;;;;;;3.07;2.83;;;10.20;99.90;;;;;;5091123;28;20206;-83
2022/09/22 02:18:35;;;;;;;3.40;3.10;;;10.10;99.90;;;;;;5090171;28;20202;-83
2022/09/22 02:21:04;;;;;;;3.10;2.90;;;10.10;99.90;;;;;;5090737;28;20470;-84
2022/09/22 02:23:31;;;;;;;3.30;3.00;;;10.10;99.90;;;;;;5090988;28;20277;-84
2022/09/22 02:26:00;;;;;;;3.70;2.90;;;10.10;99.90;;;;;;5089433;28;20211;-83
2022/09/22 02:28:30;;;;;;;6.80;3.27;;;10.00;99.90;;;;;;5088776;28;20609;-78
2022/09/22 02:31:00;;;;;;;3.73;3.43;;;9.90;99.90;;;;;;5088101;28;20258;-77
2022/09/22 02:33:30;;;;;;;3.27;3.00;;;9.90;99.90;;;;;;5088166;28;20240;-78
2022/09/22 02:36:04;;;;;;;3.53;3.00;;;9.80;99.90;;;;;;5088245;28;20191;-78
2022/09/22 02:38:37;;;;;;;3.30;3.00;;;9.80;99.90;;;;;;5077986;28;20206;-82
2022/09/22 02:41:11;;;;;;;4.20;3.57;;;9.80;99.90;;;;;;5088553;28;20280;-76
2022/09/22 02:43:43;;;;;;;3.13;2.93;;;9.70;99.90;;;;;;5069688;28;20199;-80
2022/09/22 02:46:15;;;;;;;3.93;3.33;;;9.70;99.90;;;;;;5067801;28;20198;-81
2022/09/22 02:48:46;;;;;;;5.83;3.23;;;9.60;99.90;;;;;;5067615;28;20215;-81
2022/09/22 02:51:14;;;;;;;3.50;3.20;;;9.50;99.90;;;;;;5067509;28;20191;-82
2022/09/22 02:53:41;;;;;;;3.17;2.87;;;9.50;99.90;;;;;;5081862;28;20727;-82
2022/09/22 02:56:08;;;;;;;3.87;2.97;;;9.50;99.90;;;;;;5080163;28;20242;-84
2022/09/22 02:58:35;;;;;;;4.43;2.83;;;9.50;99.90;;;;;;5070701;28;20204;-84
2022/09/22 03:01:01;;;;;;;3.23;2.80;;;9.50;99.90;;;;;;5082082;28;20191;-85
2022/09/22 03:03:28;;;;;;;3.30;3.00;;;9.40;99.90;;;;;;5091370;28;20676;-85
2022/09/22 03:05:56;;;;;;;3.50;3.20;;;9.40;99.90;;;;;;5090038;28;20214;-84
2022/09/22 03:08:23;;;;;;;3.10;2.90;;;9.40;99.90;;;;;;5090067;28;20218;-86
2022/09/22 03:10:50;;;;;;;3.37;3.10;;;9.40;99.90;;;;;;5089567;28;20219;-85
2022/09/22 03:13:17;;;;;;;3.77;3.30;;;9.40;99.90;;;;;;5088415;28;20219;-84
2022/09/22 03:15:44;;;;;;;4.33;3.27;;;9.40;99.90;;;;;;5089204;28;20213;-84
2022/09/22 03:18:10;;;;;;;4.90;2.83;;;9.40;99.90;;;;;;5089665;28;20218;-84
2022/09/22 03:20:37;;;;;;;4.13;3.43;;;9.40;99.90;;;;;;5089585;28;20219;-80
2022/09/22 03:23:05;;;;;;;3.40;3.03;;;9.40;99.90;;;;;;5089035;28;20207;-81
2022/09/22 03:25:32;;;;;;;3.47;3.17;;;9.30;99.90;;;;;;5087954;28;20206;-84
2022/09/22 03:27:59;;;;;;;3.63;3.20;;;9.30;99.90;;;;;;5089959;28;20219;-83
2022/09/22 03:30:25;;;;;;;4.77;3.70;;;9.20;99.90;;;;;;5089212;28;20242;-85
2022/09/22 03:32:52;;;;;;;6.13;3.57;;;9.30;99.90;;;;;;5081775;28;20231;-83
2022/09/22 03:35:19;;;;;;;4.43;3.30;;;9.20;99.90;;;;;;5079218;28;20222;-85
2022/09/22 03:37:46;;;;;;;3.20;3.00;;;9.20;99.90;;;;;;5089209;28;20206;-82
2022/09/22 03:40:14;;;;;;;3.30;3.10;;;9.30;99.90;;;;;;5089623;28;20194;-83
2022/09/22 03:42:41;;;;;;;5.20;3.47;;;9.30;99.90;;;;;;5089582;28;20206;-84
2022/09/22 03:45:09;;;;;;;3.33;3.07;;;9.30;99.90;;;;;;5089211;28;20226;-83
2022/09/22 03:47:35;;;;;;;3.83;3.53;;;9.20;99.90;;;;;;5089000;28;20214;-82
2022/09/22 03:50:03;;;;;;;3.70;3.40;;;9.20;99.90;;;;;;5088634;28;20206;-81
2022/09/22 03:52:30;;;;;;;4.60;3.60;;;9.10;99.90;;;;;;5088191;28;20239;-81
2022/09/22 03:54:56;;;;;;;5.50;3.73;;;9.00;99.90;;;;;;5083783;28;21040;-83
2022/09/22 03:57:25;;;;;;;4.10;3.67;;;9.00;99.90;;;;;;5088552;28;20218;-81
2022/09/22 03:59:51;;;;;;;5.70;3.77;;;9.00;99.90;;;;;;5088019;28;20588;-81
2022/09/22 04:02:18;;;;;;;3.87;3.47;;;9.00;99.90;;;;;;5088305;28;20210;-81
2022/09/22 04:04:45;;;;;;;4.53;3.93;;;8.90;99.90;;;;;;5088796;28;20576;-85
2022/09/22 04:07:14;;;;;;;3.73;3.40;;;9.00;99.90;;;;;;5088852;28;20582;-85
2022/09/22 04:09:40;;;;;;;4.27;3.87;;;9.00;99.90;;;;;;5089034;28;20544;-86
2022/09/22 04:12:08;;;;;;;4.10;3.80;;;9.00;99.90;;;;;;5088844;28;20205;-83
2022/09/22 04:14:36;;;;;;;4.60;4.03;;;9.00;99.90;;;;;;5087870;28;20207;-83
2022/09/22 04:17:03;;;;;;;4.87;4.03;;;9.00;99.90;;;;;;5088050;28;20207;-83
2022/09/22 04:19:34;;;;;;;6.60;4.00;;;9.00;99.90;;;;;;5087567;28;20230;-82
2022/09/22 04:22:01;;;;;;;5.00;3.60;;;9.00;99.90;;;;;;5088332;28;20198;-82
2022/09/22 04:24:28;;;;;;;4.27;3.87;;;8.90;99.90;;;;;;5088164;28;20221;-83
2022/09/22 04:26:55;;;;;;;4.73;3.90;;;8.90;99.90;;;;;;5088082;28;20669;-85
2022/09/22 04:29:22;;;;;;;6.37;4.27;;;8.90;99.90;;;;;;5088949;28;20238;-86
2022/09/22 04:31:50;;;;;;;7.10;4.10;;;8.80;99.90;;;;;;5089041;28;20210;-85
2022/09/22 04:34:16;;;;;;;7.63;4.30;;;8.80;99.90;;;;;;5089382;28;20995;-85
2022/09/22 04:36:43;;;;;;;6.87;4.10;;;8.80;99.90;;;;;;5087909;28;20207;-84
2022/09/22 04:39:10;;;;;;;5.03;3.90;;;8.80;99.90;;;;;;5088915;28;20608;-84
2022/09/22 04:41:37;;;;;;;4.30;3.90;;;8.80;99.90;;;;;;5088083;28;20217;-83
2022/09/22 04:44:04;;;;;;;5.70;4.07;;;8.70;99.90;;;;;;5088921;28;20206;-83
2022/09/22 04:46:31;;;;;;;5.63;4.23;;;8.70;99.90;;;;;;5086175;28;20199;-84
2022/09/22 04:48:59;;;;;;;5.87;4.60;;;8.70;99.90;;;;;;5077729;28;20198;-85
2022/09/22 04:51:26;;;;;;;4.90;4.27;;;8.70;99.90;;;;;;5085865;28;20285;-83
2022/09/22 04:53:53;;;;;;;4.20;3.80;;;8.70;99.90;;;;;;5089028;28;20222;-86
2022/09/22 04:56:20;;;;;;;4.73;4.33;;;8.60;99.90;;;;;;5067924;28;20372;-83
2022/09/22 04:58:47;;;;;;;5.23;4.27;;;8.60;99.90;;;;;;5079969;28;20199;-83
2022/09/22 05:01:14;;;;;;;4.43;4.03;;;8.60;99.90;;;;;;5077683;28;20204;-83
2022/09/22 05:03:40;;;;;;;4.77;4.07;;;8.50;99.90;;;;;;5084181;28;20207;-85
2022/09/22 05:06:08;;;;;;;5.17;4.67;;;8.50;99.90;;;;;;5077554;28;20211;-85
2022/09/22 05:08:35;;;;;;;5.57;4.70;;;8.40;99.90;;;;;;5072047;28;20210;-86
2022/09/22 05:11:05;;;;;;;5.63;4.97;;;8.40;99.90;;;;;;5087928;28;20216;-82
2022/09/22 05:13:32;;;;;;;6.53;4.70;;;8.40;99.90;;;;;;5087844;28;20241;-84
2022/09/22 05:15:58;;;;;;;6.90;4.43;;;8.40;99.90;;;;;;5087632;28;20215;-78
2022/09/22 05:18:25;;;;;;;6.50;5.10;;;8.50;99.90;;;;;;5087463;28;20207;-78
2022/09/22 05:20:52;;;;;;;7.70;5.47;;;8.50;99.90;;;;;;5086835;28;20230;-78
2022/09/22 05:23:20;;;;;;;6.80;4.40;;;8.60;99.90;;;;;;5087640;28;20222;-75
2022/09/22 05:25:47;;;;;;;6.87;5.13;;;8.50;99.90;;;;;;5087425;28;20203;-75
2022/09/22 05:28:13;;;;;;;7.17;5.00;;;8.50;99.90;;;;;;5088479;28;20209;-87
2022/09/22 05:30:40;;;;;;;9.33;5.17;;;8.50;99.90;;;;;;5084829;28;20250;-79
2022/09/22 05:33:07;;;;;;;6.50;4.63;;;8.60;99.90;;;;;;5067008;28;20238;-73
2022/09/22 05:35:34;;;;;;;6.57;5.03;;;8.70;99.90;;;;;;5076094;28;20721;-75
2022/09/22 05:38:00;;;;;;;7.73;5.10;;;8.80;99.90;;;;;;5078471;28;20665;-75
2022/09/22 05:40:29;;;;;;;7.83;4.97;;;8.90;99.90;;;;;;5086309;28;20206;-73
2022/09/22 05:42:56;;;;;;;6.93;5.17;;;9.00;99.90;;;;;;5090443;28;20293;-73
2022/09/22 05:45:23;;;;;;;6.20;5.10;;;9.10;99.90;;;;;;5090510;28;20293;-73
2022/09/22 05:47:50;;;;;;;8.37;5.30;;;9.20;99.90;;;;;;5081904;28;20226;-74
2022/09/22 05:50:19;;;;;;;8.23;5.83;;;9.10;99.90;;;;;;5081596;28;20585;-74
2022/09/22 05:52:46;;;;;;;9.23;5.77;;;9.10;99.90;;;;;;5078688;28;20199;-73
2022/09/22 05:55:13;;;;;;;12.33;6.33;;;9.10;99.90;;;;;;5077668;28;20207;-82
2022/09/22 05:57:42;;;;;;;15.87;7.00;;;9.00;99.90;;;;;;5078587;28;20206;-79
2022/09/22 06:00:10;;;;;;;15.50;7.43;;;9.00;99.90;;;;;;5088300;28;20232;-79
2022/09/22 06:02:37;;;;;;;10.43;6.43;;;9.00;99.90;;;;;;5075253;28;20597;-79
2022/09/22 06:05:04;;;;;;;7.60;6.03;;;9.10;99.90;;;;;;5075302;28;20214;-79
2022/09/22 06:07:31;;;;;;;8.47;6.17;;;9.00;99.90;;;;;;5103488;28;20215;-79
2022/09/22 06:09:57;;;;;;;12.23;6.07;;;9.00;99.90;;;;;;5083306;28;20286;-80
2022/09/22 06:12:24;;;;;;;8.90;6.17;;;9.00;99.90;;;;;;5070047;28;20211;-79
2022/09/22 06:14:53;;;;;;;11.60;6.93;;;9.10;99.90;;;;;;5070568;28;20822;-82
2022/09/22 06:17:19;;;;;;;10.50;6.80;;;9.10;99.90;;;;;;5070982;28;20203;-80
2022/09/22 06:19:49;;;;;;;10.07;7.10;;;9.20;99.90;;;;;;5073636;28;20234;-78
2022/09/22 06:22:17;;;;;;;9.70;7.23;;;9.20;99.90;;;;;;5090280;28;20230;-84
2022/09/22 06:24:44;;;;;;;11.23;7.40;;;9.20;99.90;;;;;;5090491;28;20213;-83
2022/09/22 06:27:10;;;;;;;8.97;6.60;;;9.20;99.90;;;;;;5090559;28;20661;-86
2022/09/22 06:29:37;;;;;;;10.63;6.97;;;9.30;99.90;;;;;;5089650;28;20237;-85
2022/09/22 06:32:07;;;;;;;13.27;7.83;;;9.30;99.90;;;;;;5090998;28;20203;-85
2022/09/22 06:34:34;;;;;;;13.27;7.40;;;9.40;99.90;;;;;;5086435;28;20238;-85
2022/09/22 06:37:01;;;;;;;11.13;6.63;;;9.40;99.90;;;;;;5071014;28;20206;-88
2022/09/22 06:39:28;;;;;;;9.73;6.10;;;9.40;99.90;;;;;;5081481;28;20210;-82
2022/09/22 06:41:56;;;;;;;8.03;6.47;;;9.50;99.90;;;;;;5089453;28;20235;-82
2022/09/22 06:44:23;;;;;;;10.33;6.77;;;9.50;99.90;;;;;;5089663;28;20469;-83
2022/09/22 06:46:49;;;;;;;8.20;6.23;;;9.50;99.90;;;;;;5089100;28;20243;-84
2022/09/22 06:49:18;;;;;;;11.67;7.37;;;9.60;99.90;;;;;;5089534;28;20203;-84
2022/09/22 06:51:48;;;;;;;11.33;6.53;;;9.60;99.90;;;;;;5088926;28;20211;-83
2022/09/22 06:54:15;;;;;;;10.47;6.70;;;9.60;99.90;;;;;;5089185;28;20226;-84
2022/09/22 06:56:42;;;;;;;11.97;6.77;;;9.70;99.90;;;;;;5089245;28;20263;-82
2022/09/22 06:59:11;;;;;;;15.10;8.47;;;9.80;99.90;;;;;;5089389;28;20230;-83
2022/09/22 07:01:39;;;;;;;10.63;6.93;;;9.90;99.90;;;;;;5088728;28;20211;-81
2022/09/22 07:04:06;;;;;;;11.50;7.13;;;10.00;99.90;;;;;;5080037;28;20214;-82
2022/09/22 07:06:36;;;;;;;9.47;6.90;;;10.00;99.90;;;;;;5093939;28;20422;-84
2022/09/22 07:09:03;;;;;;;10.33;6.77;;;10.10;99.90;;;;;;5100624;28;20199;-83
2022/09/22 07:11:30;;;;;;;13.07;6.97;;;10.20;99.90;;;;;;5088649;28;20202;-83
2022/09/22 07:13:57;;;;;;;10.30;7.23;;;10.30;99.90;;;;;;5088472;28;20798;-83
2022/09/22 07:16:26;;;;;;;13.53;7.57;;;10.30;99.90;;;;;;5089131;28;20588;-84
2022/09/22 07:18:54;;;;;;;13.47;7.53;;;10.40;99.90;;;;;;5089048;28;20227;-82
2022/09/22 07:21:22;;;;;;;11.90;7.00;;;10.50;99.90;;;;;;5082215;28;20210;-82
2022/09/22 07:23:53;;;;;;;11.67;7.70;;;10.50;99.90;;;;;;5076972;28;20218;-79
2022/09/22 07:26:22;;;;;;;11.00;6.93;;;10.70;99.90;;;;;;5084340;28;20650;-79
2022/09/22 07:28:52;;;;;;;9.57;6.60;;;10.70;99.90;;;;;;5068693;28;20959;-82
2022/09/22 07:31:20;;;;;;;11.40;7.17;;;10.80;99.90;;;;;;5068568;28;20214;-83
2022/09/22 07:33:47;;;;;;;10.30;6.10;;;10.90;99.90;;;;;;5072725;28;20227;-82
2022/09/22 07:36:17;;;;;;;10.23;6.27;;;11.00;99.90;;;;;;5087073;28;20213;-82
2022/09/22 07:38:48;;;;;;;11.23;6.47;;;11.10;99.90;;;;;;5087145;28;20207;-81
2022/09/22 07:41:20;;;;;;;9.10;5.13;;;11.20;99.90;;;;;;5087192;28;20227;-81
2022/09/22 07:43:49;;;;;;;7.23;5.03;;;11.20;99.90;;;;;;5086532;28;20309;-81
2022/09/22 07:46:16;;;;;;;7.07;5.07;;;11.30;99.90;;;;;;5086985;28;20206;-81
2022/09/22 07:48:45;;;;;;;6.80;4.87;;;11.40;99.90;;;;;;5087062;28;20219;-81
2022/09/22 07:51:17;;;;;;;8.07;4.53;;;11.50;99.90;;;;;;5086997;28;20667;-81
2022/09/22 07:53:45;;;;;;;7.00;4.97;;;11.50;99.90;;;;;;5086641;28;20237;-81
2022/09/22 07:56:13;;;;;;;7.10;5.03;;;11.60;99.90;;;;;;5087362;28;20226;-82
2022/09/22 07:58:46;;;;;;;8.93;5.10;;;11.70;99.90;;;;;;5087174;28;20210;-80
2022/09/22 08:01:14;;;;;;;6.80;4.67;;;11.70;99.90;;;;;;5086733;28;20202;-81
2022/09/22 08:03:40;;;;;;;13.07;4.83;;;11.80;99.90;;;;;;5088785;28;20215;-82
2022/09/22 08:06:10;;;;;;;6.97;4.20;;;11.80;99.90;;;;;;5088248;28;20210;-81
2022/09/22 08:08:38;;;;;;;7.20;4.10;;;11.90;99.90;;;;;;5088281;28;20207;-82
2022/09/22 08:11:06;;;;;;;7.40;4.30;;;12.00;99.90;;;;;;5088648;28;20731;-82
2022/09/22 08:13:35;;;;;;;7.63;4.20;;;12.00;99.90;;;;;;5087973;28;20211;-81
2022/09/22 08:16:04;;;;;;;8.53;4.10;;;12.10;99.90;;;;;;5086964;28;20748;-82
2022/09/22 08:18:32;;;;;;;6.17;3.63;;;12.20;99.90;;;;;;5082286;28;20256;-82
2022/09/22 08:20:59;;;;;;;3.70;3.40;;;12.40;99.90;;;;;;5075986;28;20253;-82
2022/09/22 08:23:26;;;;;;;5.93;3.70;;;12.40;99.90;;;;;;5068091;28;20294;-83
2022/09/22 08:25:53;;;;;;;4.90;4.40;;;12.50;99.90;;;;;;5087213;28;20235;-83
2022/09/22 08:28:20;;;;;;;6.23;4.80;;;12.60;99.90;;;;;;5088630;28;20202;-83
2022/09/22 08:30:47;;;;;;;7.60;4.70;;;12.60;99.90;;;;;;5087307;28;20249;-83
2022/09/22 08:33:15;;;;;;;8.13;3.80;;;12.60;99.90;;;;;;5087880;28;20206;-82
2022/09/22 08:35:52;;;;;;;5.23;3.53;;;12.70;99.90;;;;;;5087406;28;20329;-83
2022/09/22 08:38:21;;;;;;;4.07;3.30;;;12.90;99.90;;;;;;5067464;28;20202;-83
2022/09/22 08:41:01;;;;;;;8.70;3.80;;;12.80;99.90;;;;;;5078820;28;20629;-82
2022/09/22 08:43:31;;;;;;;5.20;3.33;;;12.90;99.90;;;;;;5082583;28;20205;-82
2022/09/22 08:45:58;;;;;;;5.00;3.60;;;13.00;99.90;;;;;;5086871;28;20293;-75
2022/09/22 08:54:14;;;;;;;4.30;2.40;;;13.20;99.90;;;;;;5028911;28;20637;-70
2022/09/22 08:56:44;;;;;;;4.33;3.30;;;13.20;99.90;;;;;;5060671;28;20265;-71
2022/09/22 08:59:17;;;;;;;4.00;2.43;;;13.30;99.90;;;;;;5079151;28;20210;-71
2022/09/22 09:02:01;;;;;;;4.47;2.77;;;13.30;99.90;;;;;;5087094;28;20210;-71
2022/09/22 09:04:55;;;;;;;4.83;3.03;;;13.40;99.90;;;;;;5086831;28;20705;-70
2022/09/22 09:07:31;;;;;;;5.07;2.80;;;13.50;99.90;;;;;;5083748;28;20203;-71
2022/09/22 09:10:07;;;;;;;3.40;2.67;;;13.60;99.90;;;;;;5085901;28;20191;-71
2022/09/22 09:12:45;;;;;;;4.90;2.60;;;13.70;99.90;;;;;;5087019;28;20199;-71
2022/09/22 09:15:40;;;;;;;5.60;3.47;;;13.90;99.90;;;;;;5089161;28;20222;-71
2022/09/22 09:18:13;;;;;;;3.37;2.90;;;14.00;99.90;;;;;;5088282;28;20199;-71
2022/09/22 09:20:45;;;;;;;4.33;2.90;;;14.10;99.90;;;;;;5089953;28;20226;-71
2022/09/22 09:23:16;;;;;;;2.73;2.53;;;14.20;99.90;;;;;;5090959;28;20197;-70
2022/09/22 09:25:46;;;;;;;2.73;2.53;;;14.20;99.90;;;;;;5090117;28;20207;-69
2022/09/22 09:28:15;;;;;;;2.33;2.10;;;14.30;99.90;;;;;;5090694;28;20198;-69
2022/09/22 09:30:48;;;;;;;2.00;1.90;;;14.40;99.90;;;;;;5090170;28;20241;-69
2022/09/22 09:33:26;;;;;;;2.00;1.60;;;14.60;99.90;;;;;;5090802;28;20188;-69
2022/09/22 09:35:54;;;;;;;2.17;2.00;;;14.60;99.90;;;;;;5089769;28;20288;-69
2022/09/22 09:38:27;;;;;;;1.77;1.67;;;14.80;99.90;;;;;;5090442;28;20245;-69
2022/09/22 09:41:00;;;;;;;2.00;1.80;;;14.80;99.90;;;;;;5090205;28;20953;-69
2022/09/22 09:43:29;;;;;;;2.50;1.80;;;14.90;99.90;;;;;;5090251;28;20282;-70
2022/09/22 09:46:07;;;;;;;3.30;1.77;;;15.00;99.90;;;;;;5090235;28;20313;-70
2022/09/22 09:48:41;;;;;;;1.67;1.57;;;15.00;99.90;;;;;;5090129;28;20198;-69
2022/09/22 09:51:12;;;;;;;1.90;1.77;;;15.10;99.90;;;;;;5090058;28;20202;-69
2022/09/22 09:53:43;;;;;;;1.53;1.43;;;15.20;99.90;;;;;;5089854;28;20207;-69
2022/09/22 09:56:22;;;;;;;1.60;1.50;;;15.30;99.90;;;;;;5090020;28;20287;-69
2022/09/22 10:01:41;;;;;;;1.90;1.10;;;15.60;99.90;;;;;;5089953;28;20236;-69
2022/09/22 10:04:18;;;;;;;2.50;1.20;;;15.80;99.90;;;;;;5090035;28;20653;-69
2022/09/22 10:06:47;;;;;;;1.23;1.17;;;15.90;99.90;;;;;;5089536;28;20195;-69
2022/09/22 10:09:24;;;;;;;1.10;1.10;;;16.00;99.90;;;;;;5089823;28;20202;-70
2022/09/22 10:11:59;;;;;;;2.13;1.20;;;16.10;99.90;;;;;;5089972;28;20194;-69
2022/09/22 10:14:29;;;;;;;2.30;1.43;;;16.00;99.90;;;;;;5089316;28;20240;-69
2022/09/22 10:16:56;;;;;;;1.07;1.07;;;16.10;99.90;;;;;;5089861;28;20191;-70
2022/09/22 10:19:28;;;;;;;2.97;2.10;;;16.20;99.90;;;;;;5089054;28;20729;-70
2022/09/22 10:24:56;;;;;;;1.27;1.20;;;16.20;99.90;;;;;;5084639;28;20560;-70
2022/09/22 10:27:24;;;;;;;0.97;0.97;;;16.20;99.90;;;;;;5084507;28;20653;-70
2022/09/22 10:30:22;;;;;;;0.93;0.90;;;16.30;99.90;;;;;;5084782;28;20203;-70
2022/09/22 10:33:20;;;;;;;2.20;1.27;;;16.40;99.90;;;;;;5070028;28;20215;-69
2022/09/22 10:35:54;;;;;;;3.07;1.93;;;16.40;99.90;;;;;;5021411;28;20280;-70
2022/09/22 10:38:22;;;;;;;3.20;1.50;;;16.40;99.90;;;;;;5056471;28;20223;-70
2022/09/22 10:40:56;;;;;;;14.40;2.20;;;16.50;99.90;;;;;;5064299;28;20238;-70
2022/09/22 10:43:44;;;;;;;6.77;1.07;;;16.40;99.90;;;;;;5064019;28;20709;-71
2022/09/22 10:46:25;;;;;;;3.03;1.17;;;16.30;99.90;;;;;;5064200;28;20200;-69
2022/09/22 10:48:55;;;;;;;3.53;0.80;;;16.20;99.90;;;;;;5044402;28;20196;-71
2022/09/22 10:51:34;;;;;;;2.33;0.93;;;16.10;99.90;;;;;;5054005;28;21041;-70
2022/09/22 10:54:24;;;;;;;3.70;0.70;;;15.90;99.90;;;;;;5064072;28;20330;-70
2022/09/22 10:56:57;;;;;;;1.40;0.67;;;15.70;99.90;;;;;;5064565;28;20265;-70
2022/09/22 10:59:41;;;;;;;1.60;1.00;;;15.60;99.90;;;;;;5064120;28;20250;-71
2022/09/22 11:02:35;;;;;;;2.67;1.07;;;15.50;99.90;;;;;;5063798;28;20793;-70
2022/09/22 11:12:15;;;;;;;1.43;1.00;;;15.40;99.90;;;;;;5063615;28;20206;-70
2022/09/22 11:14:04;;;;;;;1.07;0.73;;;15.50;99.90;;;;;;5062997;28;20215;-69
2022/09/22 11:16:46;;;;;;;1.60;0.70;;;15.50;99.90;;;;;;5063606;28;20196;-69
2022/09/22 11:20:02;;;;;;;1.50;0.80;;;15.50;99.90;;;;;;5063250;28;20219;-69
2022/09/22 11:22:59;;;;;;;1.10;0.80;;;15.40;99.90;;;;;;5000844;28;20213;-70
2022/09/22 11:25:42;;;;;;;0.70;0.70;;;15.40;99.90;;;;;;5076160;28;20689;-70
2022/09/22 11:28:21;;;;;;;0.40;0.40;;;15.30;99.90;;;;;;5077659;28;20191;-70
2022/09/22 11:30:53;;;;;;;0.50;0.50;;;15.20;99.90;;;;;;5063248;28;20196;-70
2022/09/22 11:34:05;;;;;;;0.53;0.53;;;15.20;99.90;;;;;;5063169;28;20203;-69
2022/09/22 11:36:44;;;;;;;0.30;0.30;;;15.30;99.90;;;;;;4987385;28;20220;-70
2022/09/22 11:39:25;;;;;;;1.63;0.70;;;15.30;99.90;;;;;;5040665;28;20218;-69
2022/09/22 11:42:04;;;;;;;1.90;0.60;;;15.30;99.90;;;;;;5050085;28;20188;-70
2022/09/22 11:44:36;;;;;;;1.83;0.60;;;15.40;99.90;;;;;;5049593;28;20228;-70
2022/09/22 11:47:18;;;;;;;0.70;0.70;;;15.40;99.90;;;;;;5050050;28;20612;-70
2022/09/22 11:50:00;;;;;;;0.57;0.50;;;15.40;99.90;;;;;;5049635;28;20200;-70
2022/09/22 11:52:42;;;;;;;0.90;0.60;;;15.40;99.90;;;;;;5049949;28;20215;-69
2022/09/22 11:55:24;;;;;;;0.87;0.63;;;15.40;99.90;;;;;;5062294;28;20211;-70
2022/09/22 11:57:57;;;;;;;2.10;0.73;;;15.40;99.90;;;;;;5069906;28;20192;-70
2022/09/22 12:00:24;;;;;;;1.27;0.63;;;15.40;99.90;;;;;;5069669;28;20199;-70
2022/09/22 12:02:57;;;;;;;1.03;0.77;;;15.50;99.90;;;;;;5050119;28;20578;-70
2022/09/22 12:05:29;;;;;;;3.07;1.00;;;15.90;99.90;;;;;;5049420;28;20701;-70
2022/09/22 12:08:02;;;;;;;0.80;0.50;;;16.30;99.90;;;;;;5049602;28;20203;-70
2022/09/22 12:10:34;;;;;;;2.47;0.70;;;16.70;99.90;;;;;;5049399;28;20192;-70
2022/09/22 12:13:03;;;;;;;1.90;0.80;;;17.00;99.90;;;;;;5049180;28;20193;-70
2022/09/22 12:15:34;;;;;;;0.60;0.60;;;17.10;99.90;;;;;;5049296;28;20204;-70
2022/09/22 12:18:09;;;;;;;1.17;0.60;;;17.00;99.90;;;;;;5049658;28;20202;-70
2022/09/22 12:20:47;;;;;;;0.97;0.70;;;16.80;99.90;;;;;;5049548;28;20249;-70
2022/09/22 12:23:23;;;;;;;1.33;0.60;;;16.70;99.90;;;;;;5049030;28;20243;-70
2022/09/22 12:25:53;;;;;;;0.60;0.60;;;16.60;99.90;;;;;;5032191;28;20603;-70
2022/09/22 12:28:25;;;;;;;1.07;0.70;;;16.50;99.90;;;;;;5029059;28;20804;-69
2022/09/22 12:30:57;;;;;;;0.90;0.70;;;16.50;99.90;;;;;;5047870;28;20255;-70
2022/09/22 12:33:27;;;;;;;1.03;0.53;;;16.30;99.90;;;;;;5049227;28;20560;-69
2022/09/22 12:35:55;;;;;;;0.60;0.60;;;16.30;99.90;;;;;;5048748;28;20204;-70
2022/09/22 12:38:23;;;;;;;1.10;0.70;;;16.20;99.90;;;;;;5049025;28;20215;-70
2022/09/22 12:40:53;;;;;;;0.97;0.50;;;16.20;99.90;;;;;;5048687;28;20257;-69
2022/09/22 12:43:23;;;;;;;1.10;0.90;;;16.10;99.90;;;;;;5049107;28;20235;-69
2022/09/22 12:45:54;;;;;;;0.93;0.90;;;16.10;99.90;;;;;;5048416;28;20204;-70
2022/09/22 12:48:27;;;;;;;1.03;0.90;;;16.10;99.90;;;;;;5048512;28;20201;-70
2022/09/22 12:51:15;;;;;;;2.00;1.00;;;16.10;99.90;;;;;;5048760;28;20192;-70
2022/09/22 12:53:43;;;;;;;2.87;0.80;;;16.10;99.90;;;;;;5049130;28;20204;-70
2022/09/22 12:56:44;;;;;;;1.07;0.80;;;16.10;99.90;;;;;;5068751;28;20207;-70
2022/09/22 12:59:43;;;;;;;0.70;0.70;;;16.10;99.90;;;;;;5048481;28;20238;-71
2022/09/22 13:02:17;;;;;;;1.33;0.90;;;16.10;99.90;;;;;;5048086;28;20208;-70
2022/09/22 13:05:28;;;;;;;0.80;0.70;;;16.00;99.90;;;;;;5048190;28;20580;-70
2022/09/22 13:07:55;;;;;;;0.70;0.60;;;16.00;99.90;;;;;;5048042;28;20250;-70
2022/09/22 13:10:49;;;;;;;1.53;0.67;;;16.00;99.90;;;;;;5048352;28;20208;-70
2022/09/22 13:13:35;;;;;;;0.80;0.80;;;16.10;99.90;;;;;;5048189;28;20196;-70
2022/09/22 13:16:03;;;;;;;0.90;0.80;;;16.20;99.90;;;;;;5048303;28;20544;-70
2022/09/22 13:18:33;;;;;;;1.60;0.60;;;16.30;99.90;;;;;;5047943;28;20646;-70
2022/09/22 13:21:02;;;;;;;0.73;0.50;;;16.60;99.90;;;;;;5046899;28;20219;-69
2022/09/22 13:23:30;;;;;;;1.10;0.80;;;17.00;99.90;;;;;;5047189;28;20238;-70
2022/09/22 13:26:06;;;;;;;0.73;0.50;;;17.40;99.90;;;;;;5042859;28;20205;-69
2022/09/22 13:28:33;;;;;;;4.73;1.13;;;17.80;99.90;;;;;;5046368;28;20253;-70
2022/09/22 13:31:02;;;;;;;2.27;1.03;;;18.20;99.90;;;;;;5033148;28;20207;-70